sensor_id;sensor_type;location;lat;lon;timestamp;P1;durP1;ratioP1;P2;durP2;ratioP2
2610;SDS011;5612;51.134;17.058;2022-07-03T00:00:45;7.90;;;7.30;;
2610;SDS011;5612;51.134;17.058;2022-07-03T00:03:16;7.27;;;6.67;;
2610;SDS011;5612;51.134;17.058;2022-07-03T00:05:45;7.10;;;6.57;;
2610;SDS011;5612;51.134;17.058;2022-07-03T00:08:14;6.60;;;6.20;;
2610;SDS011;5612;51.134;17.058;2022-07-03T00:10:43;11.03;;;6.20;;
2610;SDS011;5612;51.134;17.058;2022-07-03T00:13:13;6.43;;;6.03;;
2610;SDS011;5612;51.134;17.058;2022-07-03T00:15:42;7.17;;;6.67;;
2610;SDS011;5612;51.134;17.058;2022-07-03T00:18:12;10.37;;;5.70;;
2610;SDS011;5612;51.134;17.058;2022-07-03T00:20:44;7.50;;;6.90;;
2610;SDS011;5612;51.134;17.058;2022-07-03T00:23:15;6.30;;;5.70;;
2610;SDS011;5612;51.134;17.058;2022-07-03T00:25:46;7.70;;;7.10;;
2610;SDS011;5612;51.134;17.058;2022-07-03T00:28:18;7.50;;;7.00;;
2610;SDS011;5612;51.134;17.058;2022-07-03T00:30:48;7.60;;;7.00;;
2610;SDS011;5612;51.134;17.058;2022-07-03T00:33:18;7.40;;;6.80;;
2610;SDS011;5612;51.134;17.058;2022-07-03T00:35:50;6.50;;;6.00;;
2610;SDS011;5612;51.134;17.058;2022-07-03T00:38:23;6.73;;;6.33;;
2610;SDS011;5612;51.134;17.058;2022-07-03T00:40:52;6.70;;;6.27;;
2610;SDS011;5612;51.134;17.058;2022-07-03T00:43:21;7.00;;;6.50;;
2610;SDS011;5612;51.134;17.058;2022-07-03T00:45:53;6.40;;;6.00;;
2610;SDS011;5612;51.134;17.058;2022-07-03T00:48:31;6.80;;;6.30;;
2610;SDS011;5612;51.134;17.058;2022-07-03T00:51:08;6.83;;;6.37;;
2610;SDS011;5612;51.134;17.058;2022-07-03T00:53:43;7.40;;;6.90;;
2610;SDS011;5612;51.134;17.058;2022-07-03T00:56:18;6.37;;;5.87;;
2610;SDS011;5612;51.134;17.058;2022-07-03T00:58:52;8.73;;;6.70;;
2610;SDS011;5612;51.134;17.058;2022-07-03T01:01:24;8.60;;;7.30;;
2610;SDS011;5612;51.134;17.058;2022-07-03T01:03:57;6.07;;;5.57;;
2610;SDS011;5612;51.134;17.058;2022-07-03T01:06:50;7.10;;;6.60;;
2610;SDS011;5612;51.134;17.058;2022-07-03T01:09:28;6.90;;;6.30;;
2610;SDS011;5612;51.134;17.058;2022-07-03T01:12:16;7.17;;;6.17;;
2610;SDS011;5612;51.134;17.058;2022-07-03T01:15:04;7.07;;;6.67;;
2610;SDS011;5612;51.134;17.058;2022-07-03T01:17:39;6.43;;;5.93;;
2610;SDS011;5612;51.134;17.058;2022-07-03T01:20:13;7.27;;;6.77;;
2610;SDS011;5612;51.134;17.058;2022-07-03T01:22:48;6.50;;;5.90;;
2610;SDS011;5612;51.134;17.058;2022-07-03T01:25:23;7.17;;;6.67;;
2610;SDS011;5612;51.134;17.058;2022-07-03T01:28:07;7.33;;;6.70;;
2610;SDS011;5612;51.134;17.058;2022-07-03T01:30:40;7.20;;;6.63;;
2610;SDS011;5612;51.134;17.058;2022-07-03T01:33:13;8.30;;;7.63;;
2610;SDS011;5612;51.134;17.058;2022-07-03T01:35:47;9.23;;;8.53;;
2610;SDS011;5612;51.134;17.058;2022-07-03T01:38:26;7.90;;;7.17;;
2610;SDS011;5612;51.134;17.058;2022-07-03T01:40:57;7.60;;;7.10;;
2610;SDS011;5612;51.134;17.058;2022-07-03T01:43:29;8.53;;;7.73;;
2610;SDS011;5612;51.134;17.058;2022-07-03T01:46:00;7.17;;;6.77;;
2610;SDS011;5612;51.134;17.058;2022-07-03T01:48:32;7.77;;;7.07;;
2610;SDS011;5612;51.134;17.058;2022-07-03T01:51:02;8.70;;;8.10;;
2610;SDS011;5612;51.134;17.058;2022-07-03T01:53:33;8.63;;;8.03;;
2610;SDS011;5612;51.134;17.058;2022-07-03T01:56:03;8.37;;;7.60;;
2610;SDS011;5612;51.134;17.058;2022-07-03T01:58:35;9.50;;;8.90;;
2610;SDS011;5612;51.134;17.058;2022-07-03T02:01:06;9.63;;;8.93;;
2610;SDS011;5612;51.134;17.058;2022-07-03T02:03:46;11.03;;;10.23;;
2610;SDS011;5612;51.134;17.058;2022-07-03T02:06:24;10.50;;;9.80;;
2610;SDS011;5612;51.134;17.058;2022-07-03T02:09:05;9.90;;;9.20;;
2610;SDS011;5612;51.134;17.058;2022-07-03T02:11:53;9.70;;;8.80;;
2610;SDS011;5612;51.134;17.058;2022-07-03T02:14:25;10.53;;;9.73;;
2610;SDS011;5612;51.134;17.058;2022-07-03T02:17:02;9.70;;;9.00;;
2610;SDS011;5612;51.134;17.058;2022-07-03T02:19:41;9.73;;;8.97;;
2610;SDS011;5612;51.134;17.058;2022-07-03T02:22:16;9.30;;;8.50;;
2610;SDS011;5612;51.134;17.058;2022-07-03T02:24:48;10.23;;;9.53;;
2610;SDS011;5612;51.134;17.058;2022-07-03T02:27:19;9.40;;;8.70;;
2610;SDS011;5612;51.134;17.058;2022-07-03T02:29:54;11.67;;;10.80;;
2610;SDS011;5612;51.134;17.058;2022-07-03T02:32:28;11.80;;;10.83;;
2610;SDS011;5612;51.134;17.058;2022-07-03T02:35:00;11.97;;;10.97;;
2610;SDS011;5612;51.134;17.058;2022-07-03T02:37:33;10.90;;;10.00;;
2610;SDS011;5612;51.134;17.058;2022-07-03T02:40:09;13.33;;;10.87;;
2610;SDS011;5612;51.134;17.058;2022-07-03T02:42:54;11.63;;;10.73;;
2610;SDS011;5612;51.134;17.058;2022-07-03T02:45:38;10.07;;;9.33;;
2610;SDS011;5612;51.134;17.058;2022-07-03T02:48:16;12.10;;;11.20;;
2610;SDS011;5612;51.134;17.058;2022-07-03T02:50:50;10.70;;;10.00;;
2610;SDS011;5612;51.134;17.058;2022-07-03T02:53:27;11.73;;;10.60;;
2610;SDS011;5612;51.134;17.058;2022-07-03T02:56:05;11.57;;;10.80;;
2610;SDS011;5612;51.134;17.058;2022-07-03T02:58:51;10.93;;;10.10;;
2610;SDS011;5612;51.134;17.058;2022-07-03T03:01:33;11.33;;;10.23;;
2610;SDS011;5612;51.134;17.058;2022-07-03T03:04:12;10.83;;;10.03;;
2610;SDS011;5612;51.134;17.058;2022-07-03T03:06:59;12.07;;;10.97;;
2610;SDS011;5612;51.134;17.058;2022-07-03T03:09:38;10.83;;;10.13;;
2610;SDS011;5612;51.134;17.058;2022-07-03T03:12:11;11.27;;;10.37;;
2610;SDS011;5612;51.134;17.058;2022-07-03T03:14:42;11.20;;;10.37;;
2610;SDS011;5612;51.134;17.058;2022-07-03T03:17:16;12.47;;;11.47;;
2610;SDS011;5612;51.134;17.058;2022-07-03T03:19:49;11.67;;;10.67;;
2610;SDS011;5612;51.134;17.058;2022-07-03T03:22:25;11.77;;;10.67;;
2610;SDS011;5612;51.134;17.058;2022-07-03T03:25:00;10.43;;;9.63;;
2610;SDS011;5612;51.134;17.058;2022-07-03T03:27:29;10.63;;;9.83;;
2610;SDS011;5612;51.134;17.058;2022-07-03T03:30:00;11.20;;;10.10;;
2610;SDS011;5612;51.134;17.058;2022-07-03T03:32:31;11.43;;;10.63;;
2610;SDS011;5612;51.134;17.058;2022-07-03T03:35:02;11.10;;;10.30;;
2610;SDS011;5612;51.134;17.058;2022-07-03T03:37:33;12.10;;;11.10;;
2610;SDS011;5612;51.134;17.058;2022-07-03T03:40:02;11.57;;;10.77;;
2610;SDS011;5612;51.134;17.058;2022-07-03T03:42:32;11.30;;;10.50;;
2610;SDS011;5612;51.134;17.058;2022-07-03T03:45:01;11.10;;;10.20;;
2610;SDS011;5612;51.134;17.058;2022-07-03T03:47:32;14.10;;;12.90;;
2610;SDS011;5612;51.134;17.058;2022-07-03T03:50:02;11.80;;;11.00;;
2610;SDS011;5612;51.134;17.058;2022-07-03T03:52:32;11.47;;;10.57;;
2610;SDS011;5612;51.134;17.058;2022-07-03T03:55:02;11.77;;;10.73;;
2610;SDS011;5612;51.134;17.058;2022-07-03T03:57:32;11.97;;;10.90;;
2610;SDS011;5612;51.134;17.058;2022-07-03T04:00:02;11.77;;;10.97;;
2610;SDS011;5612;51.134;17.058;2022-07-03T04:02:35;11.20;;;10.37;;
2610;SDS011;5612;51.134;17.058;2022-07-03T04:05:05;10.67;;;9.77;;
2610;SDS011;5612;51.134;17.058;2022-07-03T04:07:35;11.30;;;10.50;;
2610;SDS011;5612;51.134;17.058;2022-07-03T04:10:04;11.77;;;10.80;;
2610;SDS011;5612;51.134;17.058;2022-07-03T04:12:34;10.70;;;9.93;;
2610;SDS011;5612;51.134;17.058;2022-07-03T04:15:04;10.50;;;9.80;;
2610;SDS011;5612;51.134;17.058;2022-07-03T04:17:35;10.20;;;9.30;;
2610;SDS011;5612;51.134;17.058;2022-07-03T04:20:05;11.03;;;10.23;;
2610;SDS011;5612;51.134;17.058;2022-07-03T04:22:35;11.07;;;10.10;;
2610;SDS011;5612;51.134;17.058;2022-07-03T04:25:05;10.90;;;9.93;;
2610;SDS011;5612;51.134;17.058;2022-07-03T04:27:35;9.73;;;8.87;;
2610;SDS011;5612;51.134;17.058;2022-07-03T04:30:24;10.20;;;9.50;;
2610;SDS011;5612;51.134;17.058;2022-07-03T04:32:55;10.73;;;9.93;;
2610;SDS011;5612;51.134;17.058;2022-07-03T04:35:24;10.80;;;10.00;;
2610;SDS011;5612;51.134;17.058;2022-07-03T04:37:54;11.80;;;10.93;;
2610;SDS011;5612;51.134;17.058;2022-07-03T04:40:23;11.13;;;10.17;;
2610;SDS011;5612;51.134;17.058;2022-07-03T04:42:52;12.50;;;11.40;;
2610;SDS011;5612;51.134;17.058;2022-07-03T04:45:22;13.07;;;11.97;;
2610;SDS011;5612;51.134;17.058;2022-07-03T04:47:51;12.30;;;11.30;;
2610;SDS011;5612;51.134;17.058;2022-07-03T04:50:22;11.63;;;10.80;;
2610;SDS011;5612;51.134;17.058;2022-07-03T04:52:52;12.00;;;11.10;;
2610;SDS011;5612;51.134;17.058;2022-07-03T04:55:21;11.73;;;10.60;;
2610;SDS011;5612;51.134;17.058;2022-07-03T04:57:50;12.60;;;11.60;;
2610;SDS011;5612;51.134;17.058;2022-07-03T05:00:19;11.83;;;10.73;;
2610;SDS011;5612;51.134;17.058;2022-07-03T05:02:48;11.70;;;10.80;;
2610;SDS011;5612;51.134;17.058;2022-07-03T05:05:18;10.03;;;9.33;;
2610;SDS011;5612;51.134;17.058;2022-07-03T05:07:49;10.97;;;10.07;;
2610;SDS011;5612;51.134;17.058;2022-07-03T05:10:18;10.13;;;9.33;;
2610;SDS011;5612;51.134;17.058;2022-07-03T05:12:48;10.07;;;9.20;;
2610;SDS011;5612;51.134;17.058;2022-07-03T05:15:17;10.47;;;9.77;;
2610;SDS011;5612;51.134;17.058;2022-07-03T05:17:46;10.10;;;9.40;;
2610;SDS011;5612;51.134;17.058;2022-07-03T05:20:16;9.30;;;8.70;;
2610;SDS011;5612;51.134;17.058;2022-07-03T05:22:58;9.33;;;8.63;;
2610;SDS011;5612;51.134;17.058;2022-07-03T05:25:29;9.57;;;8.87;;
2610;SDS011;5612;51.134;17.058;2022-07-03T05:28:00;9.90;;;9.20;;
2610;SDS011;5612;51.134;17.058;2022-07-03T05:30:29;9.37;;;8.67;;
2610;SDS011;5612;51.134;17.058;2022-07-03T05:32:59;9.87;;;9.17;;
2610;SDS011;5612;51.134;17.058;2022-07-03T05:35:28;8.53;;;7.93;;
2610;SDS011;5612;51.134;17.058;2022-07-03T05:37:59;9.67;;;8.80;;
2610;SDS011;5612;51.134;17.058;2022-07-03T05:40:28;8.90;;;8.30;;
2610;SDS011;5612;51.134;17.058;2022-07-03T05:42:56;8.57;;;8.00;;
2610;SDS011;5612;51.134;17.058;2022-07-03T05:45:25;9.20;;;8.50;;
2610;SDS011;5612;51.134;17.058;2022-07-03T05:47:54;9.73;;;8.93;;
2610;SDS011;5612;51.134;17.058;2022-07-03T05:50:24;8.93;;;8.23;;
2610;SDS011;5612;51.134;17.058;2022-07-03T05:52:53;8.77;;;8.13;;
2610;SDS011;5612;51.134;17.058;2022-07-03T05:55:24;8.10;;;7.50;;
2610;SDS011;5612;51.134;17.058;2022-07-03T05:57:53;8.23;;;7.70;;
2610;SDS011;5612;51.134;17.058;2022-07-03T06:00:22;8.57;;;7.93;;
2610;SDS011;5612;51.134;17.058;2022-07-03T06:02:51;8.53;;;7.90;;
2610;SDS011;5612;51.134;17.058;2022-07-03T06:05:21;9.80;;;9.20;;
2610;SDS011;5612;51.134;17.058;2022-07-03T06:07:50;10.33;;;9.60;;
2610;SDS011;5612;51.134;17.058;2022-07-03T06:10:18;8.97;;;8.37;;
2610;SDS011;5612;51.134;17.058;2022-07-03T06:12:49;9.73;;;8.97;;
2610;SDS011;5612;51.134;17.058;2022-07-03T06:15:19;10.53;;;9.73;;
2610;SDS011;5612;51.134;17.058;2022-07-03T06:17:48;8.27;;;7.63;;
2610;SDS011;5612;51.134;17.058;2022-07-03T06:20:17;8.67;;;8.10;;
2610;SDS011;5612;51.134;17.058;2022-07-03T06:22:46;9.10;;;8.50;;
2610;SDS011;5612;51.134;17.058;2022-07-03T06:25:16;7.90;;;7.40;;
2610;SDS011;5612;51.134;17.058;2022-07-03T06:27:45;9.80;;;9.00;;
2610;SDS011;5612;51.134;17.058;2022-07-03T06:30:16;8.73;;;8.13;;
2610;SDS011;5612;51.134;17.058;2022-07-03T06:32:46;9.23;;;8.33;;
2610;SDS011;5612;51.134;17.058;2022-07-03T06:35:15;8.20;;;7.67;;
2610;SDS011;5612;51.134;17.058;2022-07-03T06:37:50;8.80;;;8.10;;
2610;SDS011;5612;51.134;17.058;2022-07-03T06:40:19;9.33;;;8.53;;
2610;SDS011;5612;51.134;17.058;2022-07-03T06:42:48;8.33;;;7.63;;
2610;SDS011;5612;51.134;17.058;2022-07-03T06:45:19;7.87;;;7.23;;
2610;SDS011;5612;51.134;17.058;2022-07-03T06:47:48;8.13;;;7.63;;
2610;SDS011;5612;51.134;17.058;2022-07-03T06:50:18;8.20;;;7.70;;
2610;SDS011;5612;51.134;17.058;2022-07-03T06:52:46;8.70;;;7.90;;
2610;SDS011;5612;51.134;17.058;2022-07-03T06:55:16;7.60;;;7.00;;
2610;SDS011;5612;51.134;17.058;2022-07-03T06:57:45;8.07;;;7.47;;
2610;SDS011;5612;51.134;17.058;2022-07-03T07:00:15;7.10;;;6.57;;
2610;SDS011;5612;51.134;17.058;2022-07-03T07:02:46;7.23;;;6.80;;
2610;SDS011;5612;51.134;17.058;2022-07-03T07:05:15;6.57;;;6.17;;
2610;SDS011;5612;51.134;17.058;2022-07-03T07:07:45;5.70;;;5.30;;
2610;SDS011;5612;51.134;17.058;2022-07-03T07:10:14;5.70;;;5.40;;
2610;SDS011;5612;51.134;17.058;2022-07-03T07:12:43;5.73;;;5.23;;
2610;SDS011;5612;51.134;17.058;2022-07-03T07:15:12;5.13;;;4.83;;
2610;SDS011;5612;51.134;17.058;2022-07-03T07:17:41;4.23;;;4.03;;
2610;SDS011;5612;51.134;17.058;2022-07-03T07:20:13;4.90;;;4.60;;
2610;SDS011;5612;51.134;17.058;2022-07-03T07:22:42;4.50;;;4.20;;
2610;SDS011;5612;51.134;17.058;2022-07-03T07:25:11;4.20;;;4.00;;
2610;SDS011;5612;51.134;17.058;2022-07-03T07:27:40;4.33;;;4.03;;
2610;SDS011;5612;51.134;17.058;2022-07-03T07:30:09;3.90;;;3.70;;
2610;SDS011;5612;51.134;17.058;2022-07-03T07:32:39;4.27;;;4.03;;
2610;SDS011;5612;51.134;17.058;2022-07-03T07:35:08;4.37;;;4.13;;
2610;SDS011;5612;51.134;17.058;2022-07-03T07:37:39;3.50;;;3.30;;
2610;SDS011;5612;51.134;17.058;2022-07-03T07:40:08;3.87;;;3.67;;
2610;SDS011;5612;51.134;17.058;2022-07-03T07:42:39;4.70;;;4.30;;
2610;SDS011;5612;51.134;17.058;2022-07-03T07:45:10;4.37;;;4.17;;
2610;SDS011;5612;51.134;17.058;2022-07-03T07:47:39;3.97;;;3.77;;
2610;SDS011;5612;51.134;17.058;2022-07-03T07:50:09;3.40;;;3.27;;
2610;SDS011;5612;51.134;17.058;2022-07-03T07:52:40;4.00;;;3.80;;
2610;SDS011;5612;51.134;17.058;2022-07-03T07:55:09;3.73;;;3.53;;
2610;SDS011;5612;51.134;17.058;2022-07-03T07:57:39;4.00;;;3.80;;
2610;SDS011;5612;51.134;17.058;2022-07-03T08:00:10;3.57;;;3.47;;
2610;SDS011;5612;51.134;17.058;2022-07-03T08:02:42;3.37;;;3.27;;
2610;SDS011;5612;51.134;17.058;2022-07-03T08:05:29;4.00;;;3.80;;
2610;SDS011;5612;51.134;17.058;2022-07-03T08:08:07;3.20;;;3.07;;
2610;SDS011;5612;51.134;17.058;2022-07-03T08:10:38;2.80;;;2.70;;
2610;SDS011;5612;51.134;17.058;2022-07-03T08:13:09;3.00;;;2.90;;
2610;SDS011;5612;51.134;17.058;2022-07-03T08:15:40;3.03;;;2.93;;
2610;SDS011;5612;51.134;17.058;2022-07-03T08:18:10;2.67;;;2.57;;
2610;SDS011;5612;51.134;17.058;2022-07-03T08:20:41;2.53;;;2.43;;
2610;SDS011;5612;51.134;17.058;2022-07-03T08:23:11;3.40;;;3.10;;
2610;SDS011;5612;51.134;17.058;2022-07-03T08:25:40;5.07;;;3.27;;
2610;SDS011;5612;51.134;17.058;2022-07-03T08:28:09;4.70;;;4.20;;
2610;SDS011;5612;51.134;17.058;2022-07-03T08:30:39;3.87;;;3.67;;
2610;SDS011;5612;51.134;17.058;2022-07-03T08:33:08;4.00;;;3.50;;
2610;SDS011;5612;51.134;17.058;2022-07-03T08:35:37;3.47;;;3.30;;
2610;SDS011;5612;51.134;17.058;2022-07-03T08:38:06;3.60;;;3.40;;
2610;SDS011;5612;51.134;17.058;2022-07-03T08:40:37;3.10;;;3.00;;
2610;SDS011;5612;51.134;17.058;2022-07-03T08:43:07;2.57;;;2.47;;
2610;SDS011;5612;51.134;17.058;2022-07-03T08:45:37;2.40;;;2.30;;
2610;SDS011;5612;51.134;17.058;2022-07-03T08:48:08;2.83;;;2.73;;
2610;SDS011;5612;51.134;17.058;2022-07-03T08:50:38;2.80;;;2.60;;
2610;SDS011;5612;51.134;17.058;2022-07-03T08:53:10;3.00;;;2.80;;
2610;SDS011;5612;51.134;17.058;2022-07-03T08:55:41;2.60;;;2.50;;
2610;SDS011;5612;51.134;17.058;2022-07-03T08:58:12;2.70;;;2.60;;
2610;SDS011;5612;51.134;17.058;2022-07-03T09:00:44;2.47;;;2.38;;
2610;SDS011;5612;51.134;17.058;2022-07-03T09:03:13;2.20;;;2.10;;
2610;SDS011;5612;51.134;17.058;2022-07-03T09:05:43;1.60;;;1.60;;
2610;SDS011;5612;51.134;17.058;2022-07-03T09:08:14;2.22;;;2.13;;
2610;SDS011;5612;51.134;17.058;2022-07-03T09:10:46;2.10;;;2.00;;
2610;SDS011;5612;51.134;17.058;2022-07-03T09:13:15;2.40;;;2.30;;
2610;SDS011;5612;51.134;17.058;2022-07-03T09:15:45;2.10;;;2.00;;
2610;SDS011;5612;51.134;17.058;2022-07-03T09:18:15;2.22;;;2.13;;
2610;SDS011;5612;51.134;17.058;2022-07-03T09:20:44;2.00;;;1.90;;
2610;SDS011;5612;51.134;17.058;2022-07-03T09:23:14;2.85;;;2.65;;
2610;SDS011;5612;51.134;17.058;2022-07-03T09:25:52;3.17;;;2.92;;
2610;SDS011;5612;51.134;17.058;2022-07-03T09:28:22;3.00;;;2.90;;
2610;SDS011;5612;51.134;17.058;2022-07-03T09:30:56;2.97;;;2.80;;
2610;SDS011;5612;51.134;17.058;2022-07-03T09:33:26;1.90;;;1.80;;
2610;SDS011;5612;51.134;17.058;2022-07-03T09:35:56;1.98;;;1.88;;
2610;SDS011;5612;51.134;17.058;2022-07-03T09:38:26;2.50;;;2.40;;
2610;SDS011;5612;51.134;17.058;2022-07-03T09:40:57;2.47;;;1.92;;
2610;SDS011;5612;51.134;17.058;2022-07-03T09:43:29;1.70;;;1.70;;
2610;SDS011;5612;51.134;17.058;2022-07-03T09:45:59;1.30;;;1.30;;
2610;SDS011;5612;51.134;17.058;2022-07-03T09:48:30;2.00;;;1.90;;
2610;SDS011;5612;51.134;17.058;2022-07-03T09:51:12;1.88;;;1.77;;
2610;SDS011;5612;51.134;17.058;2022-07-03T09:53:45;1.65;;;1.65;;
2610;SDS011;5612;51.134;17.058;2022-07-03T09:56:25;1.77;;;1.67;;
2610;SDS011;5612;51.134;17.058;2022-07-03T09:59:07;1.50;;;1.50;;
2610;SDS011;5612;51.134;17.058;2022-07-03T10:01:39;1.35;;;1.35;;
2610;SDS011;5612;51.134;17.058;2022-07-03T10:04:15;1.00;;;1.00;;
2610;SDS011;5612;51.134;17.058;2022-07-03T10:06:50;1.30;;;1.30;;
2610;SDS011;5612;51.134;17.058;2022-07-03T10:09:24;0.95;;;0.95;;
2610;SDS011;5612;51.134;17.058;2022-07-03T10:11:58;1.20;;;1.20;;
2610;SDS011;5612;51.134;17.058;2022-07-03T10:14:29;1.67;;;1.67;;
2610;SDS011;5612;51.134;17.058;2022-07-03T10:16:59;1.83;;;1.73;;
2610;SDS011;5612;51.134;17.058;2022-07-03T10:19:30;2.00;;;1.90;;
2610;SDS011;5612;51.134;17.058;2022-07-03T10:22:08;1.63;;;1.50;;
2610;SDS011;5612;51.134;17.058;2022-07-03T10:24:45;4.13;;;2.00;;
2610;SDS011;5612;51.134;17.058;2022-07-03T10:27:18;1.90;;;1.80;;
2610;SDS011;5612;51.134;17.058;2022-07-03T10:29:48;1.60;;;1.55;;
2610;SDS011;5612;51.134;17.058;2022-07-03T10:32:20;1.70;;;1.60;;
2610;SDS011;5612;51.134;17.058;2022-07-03T10:34:50;1.73;;;1.70;;
2610;SDS011;5612;51.134;17.058;2022-07-03T10:37:20;1.70;;;1.60;;
2610;SDS011;5612;51.134;17.058;2022-07-03T10:39:57;1.65;;;1.55;;
2610;SDS011;5612;51.134;17.058;2022-07-03T10:42:49;1.98;;;1.88;;
2610;SDS011;5612;51.134;17.058;2022-07-03T10:45:51;1.58;;;1.58;;
2610;SDS011;5612;51.134;17.058;2022-07-03T10:51:27;1.85;;;1.77;;
2610;SDS011;5612;51.134;17.058;2022-07-03T10:54:14;1.88;;;1.77;;
2610;SDS011;5612;51.134;17.058;2022-07-03T11:02:28;2.38;;;2.28;;
2610;SDS011;5612;51.134;17.058;2022-07-03T11:05:06;2.35;;;2.25;;
2610;SDS011;5612;51.134;17.058;2022-07-03T11:07:44;2.38;;;2.28;;
2610;SDS011;5612;51.134;17.058;2022-07-03T11:10:33;2.15;;;1.95;;
2610;SDS011;5612;51.134;17.058;2022-07-03T11:13:08;1.88;;;1.77;;
2610;SDS011;5612;51.134;17.058;2022-07-03T11:15:45;3.17;;;1.98;;
2610;SDS011;5612;51.134;17.058;2022-07-03T11:18:17;2.03;;;1.92;;
2610;SDS011;5612;51.134;17.058;2022-07-03T11:27:17;2.08;;;1.98;;
2610;SDS011;5612;51.134;17.058;2022-07-03T11:29:56;2.22;;;1.75;;
2610;SDS011;5612;51.134;17.058;2022-07-03T11:32:47;1.67;;;1.60;;
2610;SDS011;5612;51.134;17.058;2022-07-03T11:38:20;2.10;;;2.00;;
2610;SDS011;5612;51.134;17.058;2022-07-03T11:40:56;2.38;;;2.28;;
2610;SDS011;5612;51.134;17.058;2022-07-03T11:43:27;1.90;;;1.80;;
2610;SDS011;5612;51.134;17.058;2022-07-03T11:45:57;1.70;;;1.60;;
2610;SDS011;5612;51.134;17.058;2022-07-03T11:48:28;1.60;;;1.60;;
2610;SDS011;5612;51.134;17.058;2022-07-03T11:51:01;1.50;;;1.50;;
2610;SDS011;5612;51.134;17.058;2022-07-03T11:53:33;1.90;;;1.90;;
2610;SDS011;5612;51.134;17.058;2022-07-03T11:56:03;3.50;;;1.92;;
2610;SDS011;5612;51.134;17.058;2022-07-03T11:58:41;1.77;;;1.77;;
2610;SDS011;5612;51.134;17.058;2022-07-03T12:01:27;1.50;;;1.50;;
2610;SDS011;5612;51.134;17.058;2022-07-03T12:04:04;2.58;;;1.75;;
2610;SDS011;5612;51.134;17.058;2022-07-03T12:06:36;1.80;;;1.80;;
2610;SDS011;5612;51.134;17.058;2022-07-03T12:09:13;1.88;;;1.88;;
2610;SDS011;5612;51.134;17.058;2022-07-03T12:11:54;1.48;;;1.48;;
2610;SDS011;5612;51.134;17.058;2022-07-03T12:14:37;1.92;;;1.83;;
2610;SDS011;5612;51.134;17.058;2022-07-03T12:17:10;1.98;;;1.98;;
2610;SDS011;5612;51.134;17.058;2022-07-03T12:19:46;2.00;;;1.80;;
2610;SDS011;5612;51.134;17.058;2022-07-03T12:22:26;1.98;;;1.88;;
2610;SDS011;5612;51.134;17.058;2022-07-03T12:24:58;2.10;;;2.00;;
2610;SDS011;5612;51.134;17.058;2022-07-03T12:27:29;2.35;;;1.50;;
2610;SDS011;5612;51.134;17.058;2022-07-03T12:30:00;2.20;;;2.10;;
2610;SDS011;5612;51.134;17.058;2022-07-03T12:32:30;1.77;;;1.77;;
2610;SDS011;5612;51.134;17.058;2022-07-03T12:35:01;2.17;;;2.08;;
2610;SDS011;5612;51.134;17.058;2022-07-03T12:37:31;2.20;;;2.00;;
2610;SDS011;5612;51.134;17.058;2022-07-03T12:40:02;2.95;;;1.90;;
2610;SDS011;5612;51.134;17.058;2022-07-03T12:42:42;2.25;;;2.15;;
2610;SDS011;5612;51.134;17.058;2022-07-03T12:45:13;1.98;;;1.88;;
2610;SDS011;5612;51.134;17.058;2022-07-03T12:47:44;1.60;;;1.60;;
2610;SDS011;5612;51.134;17.058;2022-07-03T12:50:16;1.40;;;1.40;;
2610;SDS011;5612;51.134;17.058;2022-07-03T12:52:50;1.60;;;1.50;;
2610;SDS011;5612;51.134;17.058;2022-07-03T12:55:22;1.55;;;1.55;;
2610;SDS011;5612;51.134;17.058;2022-07-03T12:58:12;2.53;;;2.33;;
2610;SDS011;5612;51.134;17.058;2022-07-03T13:01:00;2.00;;;1.90;;
2610;SDS011;5612;51.134;17.058;2022-07-03T13:03:35;2.40;;;2.20;;
2610;SDS011;5612;51.134;17.058;2022-07-03T13:06:15;2.30;;;2.20;;
2610;SDS011;5612;51.134;17.058;2022-07-03T13:08:52;1.88;;;1.77;;
2610;SDS011;5612;51.134;17.058;2022-07-03T13:11:26;2.70;;;2.60;;
2610;SDS011;5612;51.134;17.058;2022-07-03T13:14:03;1.92;;;1.92;;
2610;SDS011;5612;51.134;17.058;2022-07-03T13:16:38;2.03;;;1.92;;
2610;SDS011;5612;51.134;17.058;2022-07-03T13:19:10;2.13;;;2.03;;
2610;SDS011;5612;51.134;17.058;2022-07-03T13:21:43;2.22;;;2.03;;
2610;SDS011;5612;51.134;17.058;2022-07-03T13:24:13;1.98;;;1.98;;
2610;SDS011;5612;51.134;17.058;2022-07-03T13:26:43;2.05;;;1.95;;
2610;SDS011;5612;51.134;17.058;2022-07-03T13:29:18;2.10;;;2.00;;
2610;SDS011;5612;51.134;17.058;2022-07-03T13:31:47;2.80;;;2.45;;
2610;SDS011;5612;51.134;17.058;2022-07-03T13:34:17;2.70;;;2.60;;
2610;SDS011;5612;51.134;17.058;2022-07-03T13:36:49;2.50;;;2.40;;
2610;SDS011;5612;51.134;17.058;2022-07-03T13:39:18;2.33;;;2.22;;
2610;SDS011;5612;51.134;17.058;2022-07-03T13:41:47;2.20;;;2.10;;
2610;SDS011;5612;51.134;17.058;2022-07-03T13:44:16;2.47;;;2.38;;
2610;SDS011;5612;51.134;17.058;2022-07-03T13:46:46;2.15;;;2.05;;
2610;SDS011;5612;51.134;17.058;2022-07-03T13:49:17;2.15;;;2.05;;
2610;SDS011;5612;51.134;17.058;2022-07-03T13:51:49;2.65;;;2.55;;
2610;SDS011;5612;51.134;17.058;2022-07-03T13:54:18;2.47;;;2.38;;
2610;SDS011;5612;51.134;17.058;2022-07-03T13:56:47;2.72;;;2.60;;
2610;SDS011;5612;51.134;17.058;2022-07-03T13:59:17;3.08;;;2.88;;
2610;SDS011;5612;51.134;17.058;2022-07-03T14:01:47;3.03;;;2.70;;
2610;SDS011;5612;51.134;17.058;2022-07-03T14:04:16;2.92;;;2.83;;
2610;SDS011;5612;51.134;17.058;2022-07-03T14:06:46;2.80;;;2.60;;
2610;SDS011;5612;51.134;17.058;2022-07-03T14:09:17;3.35;;;3.20;;
2610;SDS011;5612;51.134;17.058;2022-07-03T14:11:46;2.90;;;2.80;;
2610;SDS011;5612;51.134;17.058;2022-07-03T14:14:17;2.42;;;2.33;;
2610;SDS011;5612;51.134;17.058;2022-07-03T14:16:46;2.85;;;2.75;;
2610;SDS011;5612;51.134;17.058;2022-07-03T14:19:17;2.42;;;2.33;;
2610;SDS011;5612;51.134;17.058;2022-07-03T14:21:46;3.63;;;3.42;;
2610;SDS011;5612;51.134;17.058;2022-07-03T14:24:16;3.20;;;3.00;;
2610;SDS011;5612;51.134;17.058;2022-07-03T14:26:46;3.45;;;3.25;;
2610;SDS011;5612;51.134;17.058;2022-07-03T14:29:32;3.08;;;2.92;;
2610;SDS011;5612;51.134;17.058;2022-07-03T14:32:18;3.00;;;2.90;;
2610;SDS011;5612;51.134;17.058;2022-07-03T14:34:57;2.83;;;2.67;;
2610;SDS011;5612;51.134;17.058;2022-07-03T14:37:27;3.33;;;3.13;;
2610;SDS011;5612;51.134;17.058;2022-07-03T14:39:59;3.20;;;3.00;;
2610;SDS011;5612;51.134;17.058;2022-07-03T14:42:29;2.90;;;2.80;;
2610;SDS011;5612;51.134;17.058;2022-07-03T14:44:59;3.30;;;3.10;;
2610;SDS011;5612;51.134;17.058;2022-07-03T14:47:29;3.63;;;3.33;;
2610;SDS011;5612;51.134;17.058;2022-07-03T14:49:59;3.58;;;3.38;;
2610;SDS011;5612;51.134;17.058;2022-07-03T14:52:28;4.00;;;3.80;;
2610;SDS011;5612;51.134;17.058;2022-07-03T14:55:00;3.38;;;3.17;;
2610;SDS011;5612;51.134;17.058;2022-07-03T14:57:30;2.97;;;2.78;;
2610;SDS011;5612;51.134;17.058;2022-07-03T15:00:08;2.92;;;2.83;;
2610;SDS011;5612;51.134;17.058;2022-07-03T15:02:43;2.80;;;2.70;;
2610;SDS011;5612;51.134;17.058;2022-07-03T15:05:14;2.75;;;2.55;;
2610;SDS011;5612;51.134;17.058;2022-07-03T15:07:48;2.90;;;2.70;;
2610;SDS011;5612;51.134;17.058;2022-07-03T15:10:30;3.05;;;2.95;;
2610;SDS011;5612;51.134;17.058;2022-07-03T15:13:03;3.03;;;2.92;;
2610;SDS011;5612;51.134;17.058;2022-07-03T15:15:34;3.72;;;3.42;;
2610;SDS011;5612;51.134;17.058;2022-07-03T15:18:06;3.47;;;3.17;;
2610;SDS011;5612;51.134;17.058;2022-07-03T15:20:40;2.75;;;2.55;;
2610;SDS011;5612;51.134;17.058;2022-07-03T15:23:09;2.85;;;2.67;;
2610;SDS011;5612;51.134;17.058;2022-07-03T15:25:40;3.33;;;3.13;;
2610;SDS011;5612;51.134;17.058;2022-07-03T15:28:10;4.00;;;3.70;;
2610;SDS011;5612;51.134;17.058;2022-07-03T15:30:44;3.00;;;2.90;;
2610;SDS011;5612;51.134;17.058;2022-07-03T15:33:16;3.05;;;2.92;;
2610;SDS011;5612;51.134;17.058;2022-07-03T15:35:49;3.23;;;3.07;;
2610;SDS011;5612;51.134;17.058;2022-07-03T15:38:24;3.40;;;3.20;;
2610;SDS011;5612;51.134;17.058;2022-07-03T15:41:00;3.20;;;3.00;;
2610;SDS011;5612;51.134;17.058;2022-07-03T15:43:44;3.67;;;3.47;;
2610;SDS011;5612;51.134;17.058;2022-07-03T15:46:35;3.30;;;3.10;;
2610;SDS011;5612;51.134;17.058;2022-07-03T15:49:19;2.90;;;2.73;;